Terminal Aerodrome Forecast
Issued by NWS Cleveland, OH

Home | Current Version | Previous Version | Text Only | Print | Product List | Glossary Off
Versions: 1 2 3 4 5 6 7 8 9 10 11 12 13 14 15 16 17 18 19 20 21 22

000
FTUS41 KCLE 012300
TAFTOL
TAF
KTOL 012329Z 0200/0224 27007KT P6SM SCT025 OVC100
      TEMPO 0202/0204 BKN025
     FM020400 26008KT P6SM SCT012 OVC025
     FM020800 28011KT P6SM SCT025 OVC045
     FM021600 28008KT P6SM SCT045 BKN250=

USA.gov is the U.S. government's official web portal to all federal, state and local government web resources and services.